Flight Track Log - Related Links

Times and Time Zones

All times are in EDT time to prevent confusion due to time zone crossing. See the SWA3675 flight status page for this flight to view local times or setup timezone preferences in your user account.

Time Position Orientation Groundspeed Altitude Reporting Facility
EDT Latitude Longitude Course Direction KTS MPH feet Rate Location/Type
Thu 06:23:02 PM 41.7061 -71.4419 262° West 147 169 900  Level Boston Center
Thu 06:23:57 PM 41.7003 -71.4975 262° West 190 219 3,300 2,946 Climbing Boston Center
Thu 06:24:54 PM 41.7300 -71.5667 300° West 263 303 6,400 3,590 Climbing Boston Center
Thu 06:25:54 PM 41.7847 -71.6328 318° Northwest 258 297 10,300 3,150 Climbing Boston Center
Thu 06:26:54 PM 41.8436 -71.7044 318° Northwest 291 335 12,700 3,100 Climbing Boston Center
Thu 06:27:54 PM 41.9214 -71.8011 317° Northwest 330 380 16,500 3,450 Climbing Boston Center
Thu 06:28:54 PM 41.9533 -71.9208 290° West 341 392 19,600 2,950 Climbing Boston Center
Thu 06:29:54 PM 41.9517 -72.0550 269° West 342 394 22,400 2,700 Climbing Boston Center
Thu 06:30:54 PM 41.9500 -72.1972 269° West 364 419 25,000 2,450 Climbing Boston Center
Thu 06:31:54 PM 41.9022 -72.3258 244° Southwest 378 435 27,300 2,250 Climbing Boston Center
Thu 06:32:54 PM 41.8419 -72.4567 238° Southwest 383 441 29,500 2,281 Climbing Boston Center
Thu 06:33:55 PM 41.7792 -72.5847 237° Southwest 403 464 31,900 2,200 Climbing Boston Center
Thu 06:34:54 PM 41.7164 -72.7097 236° Southwest 408 470 33,900 1,059 Climbing Boston Center
Thu 06:35:54 PM 41.6536 -72.8347 236° Southwest 413 475 34,000 50 Climbing Boston Center
Thu 06:36:54 PM 41.6031 -72.9369 237° Southwest 413 475 34,000  Level Boston Center
Thu 06:37:54 PM 41.5378 -73.0725 237° Southwest 413 475 34,000  Level Boston Center
Thu 06:38:54 PM 41.4789 -73.1908 236° Southwest 408 470 34,000  Level Boston Center
Thu 06:39:54 PM 41.4175 -73.3147 237° Southwest 408 470 34,000  Level Boston Center
Thu 06:41:00 PM 41.3418 -73.4167 236° Southwest  Level FlightAware Approximate
Thu 06:41:54 PM 41.2922 -73.5672 236° Southwest 408 470 34,000  Level Boston Center
Thu 06:44:13 PM 41.1214 -73.8533 232° Southwest 424 488 34,000  Level New York Center
Thu 06:45:13 PM 41.0536 -73.9739 233° Southwest 424 488 34,000 -843 Level New York Center
Thu 06:46:14 PM 40.9794 -74.0942 231° Southwest 424 488 32,300 -2,132 Descending New York Center
Thu 06:47:14 PM 40.9139 -74.1981 230° Southwest 424 488 29,700 -2,380 Descending New York Center
Thu 06:48:15 PM 40.8461 -74.3097 231° Southwest 412 474 27,500 -1,835 Descending New York Center
Thu 06:49:15 PM 40.7758 -74.4239 231° Southwest 406 467 26,000 -763 Descending New York Center
Thu 06:50:13 PM 40.7100 -74.5325 231° Southwest 401 461 26,000  Level New York Center
Thu 06:51:14 PM 40.6439 -74.6439 232° Southwest 401 461 26,000  Level New York Center
Thu 06:52:15 PM 40.5756 -74.7547 231° Southwest 396 456 26,000 -102 Level New York Center
Thu 06:53:12 PM 40.5033 -74.8542 226° Southwest 391 450 25,800 -610 Descending New York Center
Thu 06:54:13 PM 40.4311 -74.9564 227° Southwest 386 444 24,800 -976 Descending New York Center
Thu 06:55:15 PM 40.3608 -75.0583 228° Southwest 386 444 23,800 -984 Descending New York Center
Thu 06:56:15 PM 40.2883 -75.1572 226° Southwest 381 438 22,800 -1,017 Descending New York Center
Thu 06:57:13 PM 40.2222 -75.2536 228° Southwest 375 432 21,800 -1,008 Descending New York Center
Thu 06:58:14 PM 40.1497 -75.3494 225° Southwest 375 432 20,800 -1,000 Descending New York Center
Thu 06:59:13 PM 40.0833 -75.4481 229° Southwest 370 426 19,800 -1,000 Descending New York Center
Thu 07:00:14 PM 40.0106 -75.5461 226° Southwest 375 432 18,800 -885 Descending New York Center
Thu 07:01:15 PM 39.9356 -75.6467 226° Southwest 370 426 18,000 -403 Descending New York Center
Thu 07:02:13 PM 39.8839 -75.7378 234° Southwest 355 409 18,000 -403 Level New York Center
Thu 07:03:14 PM 39.8228 -75.8525 235° Southwest 345 397 17,200 -1,631 Descending New York Center
Thu 07:05:39 PM 39.7000 -76.1000 237° Southwest 330 380 12,400 -1,522 Descending Potomac TRACON
Thu 07:06:39 PM 39.6500 -76.1833 232° Southwest 303 349 12,000 -200 Descending Potomac TRACON
Thu 07:07:39 PM 39.6000 -76.2833 237° Southwest 292 336 12,000 -500 Level Potomac TRACON
Thu 07:08:39 PM 39.5500 -76.3667 232° Southwest 293 337 11,000 -500 Descending Potomac TRACON
Thu 07:09:39 PM 39.5167 -76.4667 247° West 289 333 11,000 -150 Level Potomac TRACON
Thu 07:10:39 PM 39.4833 -76.5500 243° Southwest 292 336 10,700 -900 Descending Potomac TRACON
Thu 07:11:39 PM 39.4833 -76.6500 270° West 286 329 9,200 -1,600 Descending Potomac TRACON
Thu 07:12:39 PM 39.4667 -76.7333 256° West 283 326 7,500 -1,617 Descending Potomac TRACON
Thu 07:13:34 PM 39.4167 -76.8000 226° Southwest 282 325 6,100 -1,339 Descending Potomac TRACON
Thu 07:14:40 PM 39.3500 -76.8667 218° Southwest 274 315 4,800 -1,200 Descending Potomac TRACON
Thu 07:15:34 PM 39.2833 -76.9000 201° Southwest 256 295 3,700 -1,096 Descending Potomac TRACON
Thu 07:16:35 PM 39.2167 -76.8833 169° South 248 285 2,700 -803 Descending Potomac TRACON
Thu 07:17:41 PM 39.1833 -76.8167 123° Southeast 211 243 2,000 -700 Descending Potomac TRACON
Thu 07:18:35 PM 39.1833 -76.7667 90° East 169 194 1,300 -750 Descending Potomac TRACON
Thu 07:19:41 PM 39.1833 -76.7167 90° East 139 160 500 -727 Descending Potomac TRACON
Thu 07:21:00 PM 39.1754 -76.6683 102° East  Level Estimated
Thu 07:28:00 PM 39.1754 -76.6683 293° West  Level Estimated
Thu 07:29:00 PM 39.1754 -76.6683 293° West  Level Estimated
Thu 07:30:00 PM 39.1754 -76.6683 293° West  Level Estimated
Thu 07:31:00 PM 39.1754 -76.6683 293° West  Level Estimated

Login

Don't have an account? Register now (free) for customized features, flight alerts, and more!